createdAt,value
2023-01-29T00:00:40.018Z,12.20
2023-01-29T00:03:08.295Z,10.40
2023-01-29T00:05:36.878Z,11.40
2023-01-29T00:08:05.607Z,12.20
2023-01-29T00:10:36.286Z,10.90
2023-01-29T00:13:05.815Z,11.60
2023-01-29T00:15:34.748Z,10.90
2023-01-29T00:18:02.943Z,11.10
2023-01-29T00:20:34.885Z,11.80
2023-01-29T00:23:03.231Z,10.20
2023-01-29T00:25:31.995Z,11.20
2023-01-29T00:28:00.182Z,11.60
2023-01-29T00:30:28.841Z,13.20
2023-01-29T00:32:57.810Z,14.90
2023-01-29T00:35:26.011Z,13.50
2023-01-29T00:37:57.901Z,13.20
2023-01-29T00:40:27.309Z,11.90
2023-01-29T00:43:14.349Z,12.40
2023-01-29T00:45:42.524Z,13.40
2023-01-29T00:48:10.644Z,13.40
2023-01-29T00:50:39.104Z,11.50
2023-01-29T00:53:07.541Z,13.30
2023-01-29T00:55:36.298Z,12.10
2023-01-29T00:58:04.652Z,14.10
2023-01-29T01:00:33.051Z,12.30
2023-01-29T01:03:07.612Z,15.10
2023-01-29T01:05:37.204Z,13.40
2023-01-29T01:08:25.606Z,12.90
2023-01-29T01:11:05.171Z,13.70
2023-01-29T01:13:34.346Z,14.80
2023-01-29T01:16:02.897Z,14.60
2023-01-29T01:18:31.130Z,13.80
2023-01-29T01:20:59.817Z,13.30
2023-01-29T01:23:28.243Z,12.70
2023-01-29T01:25:56.461Z,14.00
2023-01-29T01:28:24.954Z,12.50
2023-01-29T01:30:53.322Z,13.40
2023-01-29T01:33:21.455Z,13.90
2023-01-29T01:35:49.806Z,13.90
2023-01-29T01:38:19.906Z,13.10
2023-01-29T01:40:48.808Z,14.10
2023-01-29T01:43:16.990Z,15.50
2023-01-29T01:45:46.946Z,15.50
2023-01-29T01:48:23.965Z,14.20
2023-01-29T01:51:03.833Z,14.90
2023-01-29T01:53:42.389Z,14.10
2023-01-29T01:56:16.016Z,14.60
2023-01-29T01:58:47.418Z,14.50
2023-01-29T02:01:15.596Z,14.50
2023-01-29T02:04:12.806Z,16.50
2023-01-29T02:06:59.958Z,15.30
2023-01-29T02:10:00.525Z,15.20
2023-01-29T02:12:31.422Z,15.30
2023-01-29T02:15:00.066Z,17.60
2023-01-29T02:17:28.336Z,17.10
2023-01-29T02:20:02.144Z,16.00
2023-01-29T02:22:55.405Z,14.50
2023-01-29T02:25:26.737Z,17.00
2023-01-29T02:28:21.933Z,13.90
2023-01-29T02:30:59.167Z,13.70
2023-01-29T02:33:36.497Z,14.20
2023-01-29T02:36:10.634Z,14.20
2023-01-29T02:38:38.727Z,15.10
2023-01-29T02:41:22.824Z,14.70
2023-01-29T02:44:02.783Z,15.70
2023-01-29T02:46:47.611Z,15.10
2023-01-29T02:49:32.100Z,14.80
2023-01-29T02:52:04.887Z,15.10
2023-01-29T02:54:44.797Z,15.60
2023-01-29T02:57:43.635Z,15.50
2023-01-29T03:00:26.096Z,13.90
2023-01-29T03:03:23.369Z,15.30
2023-01-29T03:05:59.374Z,15.20
2023-01-29T03:08:43.400Z,14.40
2023-01-29T03:11:15.459Z,14.50
2023-01-29T03:13:51.382Z,15.90
2023-01-29T03:16:53.395Z,14.70
2023-01-29T03:19:36.493Z,14.70
2023-01-29T03:22:08.682Z,15.40
2023-01-29T03:25:08.871Z,17.60
2023-01-29T03:28:00.758Z,15.30
2023-01-29T03:30:53.651Z,15.80
2023-01-29T03:33:35.893Z,15.80
2023-01-29T03:36:10.800Z,15.70
2023-01-29T03:38:40.204Z,16.60
2023-01-29T03:41:29.883Z,16.40
2023-01-29T03:43:58.076Z,18.20
2023-01-29T03:46:29.913Z,18.80
2023-01-29T07:54:44.449Z,18.90
2023-01-29T07:57:13.783Z,18.00
2023-01-29T07:59:41.917Z,17.10
2023-01-29T08:02:10.259Z,18.20
2023-01-29T08:04:41.533Z,17.10
2023-01-29T08:07:10.473Z,18.50
2023-01-29T08:09:39.397Z,18.60
2023-01-29T08:12:07.524Z,18.90
2023-01-29T08:14:35.645Z,18.30
2023-01-29T08:17:03.971Z,20.00
2023-01-29T08:19:32.189Z,18.70
2023-01-29T08:22:00.433Z,15.90
2023-01-29T08:24:41.484Z,17.10
2023-01-29T08:27:17.209Z,15.90
2023-01-29T08:29:45.411Z,19.30
2023-01-29T08:32:33.456Z,19.80
2023-01-29T08:35:01.610Z,17.50
2023-01-29T08:37:30.130Z,16.30
2023-01-29T08:39:58.442Z,19.70
2023-01-29T08:42:26.644Z,16.80
2023-01-29T08:44:54.779Z,19.40
2023-01-29T08:47:22.897Z,17.90
2023-01-29T08:49:51.054Z,17.10
2023-01-29T08:52:19.184Z,18.50
2023-01-29T08:54:48.131Z,18.30
2023-01-29T08:57:16.608Z,17.50
2023-01-29T08:59:44.705Z,18.10
2023-01-29T09:02:14.963Z,20.60
2023-01-29T09:04:44.284Z,17.30
2023-01-29T09:07:12.556Z,17.10
2023-01-29T09:09:40.744Z,19.60
2023-01-29T09:12:09.253Z,19.80
2023-01-29T09:14:37.611Z,17.70
2023-01-29T09:17:08.116Z,19.90
2023-01-29T09:19:36.997Z,17.80
2023-01-29T09:22:05.812Z,19.10
2023-01-29T09:24:35.329Z,20.60
2023-01-29T09:27:03.409Z,18.90
2023-01-29T09:29:35.779Z,19.50
2023-01-29T09:32:04.817Z,18.30
2023-01-29T09:34:33.460Z,19.60
2023-01-29T09:37:01.796Z,19.20
2023-01-29T09:39:30.410Z,21.30
2023-01-29T09:42:10.707Z,20.50
2023-01-29T09:44:41.703Z,19.80
2023-01-29T09:47:13.458Z,18.50
2023-01-29T09:50:02.603Z,20.10
2023-01-29T09:53:10.554Z,18.10
2023-01-29T09:55:45.353Z,18.50
2023-01-29T09:58:26.127Z,19.50
2023-01-29T10:01:06.247Z,18.30
2023-01-29T10:04:12.252Z,18.30
2023-01-29T10:06:50.028Z,18.30
2023-01-29T10:09:55.456Z,18.70
2023-01-29T10:12:23.593Z,18.00
2023-01-29T10:15:17.834Z,17.70
2023-01-29T10:18:12.805Z,15.70
2023-01-29T10:20:53.988Z,16.90
2023-01-29T10:23:23.601Z,17.70
2023-01-29T10:25:51.818Z,17.80
2023-01-29T10:28:46.562Z,18.00
2023-01-29T10:31:33.020Z,17.80
2023-01-29T10:36:42.866Z,17.60
2023-01-29T10:39:21.520Z,19.70
2023-01-29T10:42:23.973Z,18.50
2023-01-29T10:45:32.732Z,17.10
2023-01-29T10:48:30.002Z,17.40
2023-01-29T10:51:14.839Z,16.50
2023-01-29T10:54:24.221Z,16.70
2023-01-29T10:57:10.117Z,15.00
2023-01-29T10:59:47.260Z,16.90
2023-01-29T11:02:18.214Z,16.10
2023-01-29T11:04:46.602Z,15.10
2023-01-29T11:07:16.690Z,14.30
2023-01-29T11:10:04.177Z,13.40
2023-01-29T11:12:33.868Z,13.30
2023-01-29T11:15:26.317Z,13.00
2023-01-29T11:18:23.862Z,13.10
2023-01-29T11:21:03.993Z,16.00
2023-01-29T11:23:33.708Z,13.10
2023-01-29T11:26:11.087Z,13.20
2023-01-29T11:28:40.253Z,13.50
2023-01-29T11:31:35.466Z,14.00
2023-01-29T11:34:18.986Z,13.40
2023-01-29T11:36:47.188Z,12.60
2023-01-29T11:39:17.911Z,12.50
2023-01-29T11:42:05.266Z,12.00
2023-01-29T11:44:42.151Z,11.90
2023-01-29T11:47:21.536Z,12.20
2023-01-29T16:00:57.883Z,18.80
2023-01-29T16:03:27.593Z,17.50
2023-01-29T16:05:54.395Z,17.90
2023-01-29T16:08:25.393Z,16.00
2023-01-29T16:10:57.681Z,15.10
2023-01-29T16:13:27.357Z,16.20
2023-01-29T16:15:59.239Z,15.60
2023-01-29T16:18:32.378Z,16.10
2023-01-29T16:21:24.606Z,16.10
2023-01-29T16:23:57.805Z,14.80
2023-01-29T16:26:27.454Z,15.50
2023-01-29T16:28:54.294Z,14.90
2023-01-29T16:31:30.974Z,16.10
2023-01-29T16:33:58.489Z,16.80
2023-01-29T16:36:30.139Z,16.80
2023-01-29T16:38:59.905Z,18.20
2023-01-29T16:41:35.351Z,17.40
2023-01-29T16:44:14.992Z,19.20
2023-01-29T16:46:46.506Z,16.40
2023-01-29T16:49:28.723Z,13.40
2023-01-29T16:51:56.381Z,13.70
2023-01-29T16:54:27.272Z,13.20
2023-01-29T16:56:59.349Z,14.90
2023-01-29T16:59:33.016Z,15.80
2023-01-29T17:01:59.885Z,15.50
2023-01-29T17:04:26.597Z,13.90
2023-01-29T17:06:55.412Z,14.80
2023-01-29T17:09:30.845Z,15.90
2023-01-29T17:12:07.808Z,16.30
2023-01-29T17:14:41.487Z,17.60
2023-01-29T17:17:14.717Z,15.10
2023-01-29T17:19:41.418Z,17.10
2023-01-29T17:22:14.194Z,17.10
2023-01-29T17:24:41.900Z,12.60
2023-01-29T17:27:21.436Z,11.60
2023-01-29T17:29:48.447Z,9.50
2023-01-29T17:32:18.305Z,9.40
2023-01-29T17:34:46.438Z,9.10
2023-01-29T17:37:14.848Z,8.80
2023-01-29T17:39:44.392Z,9.10
2023-01-29T17:42:13.167Z,8.10
2023-01-29T17:44:42.056Z,8.80
2023-01-29T17:47:16.803Z,8.70
2023-01-29T17:49:44.294Z,9.30
2023-01-29T17:52:11.286Z,10.90
2023-01-29T17:54:38.295Z,9.50
2023-01-29T17:57:05.057Z,10.00
2023-01-29T17:59:32.602Z,12.00
2023-01-29T18:01:59.523Z,10.60
2023-01-29T18:04:26.669Z,9.80
2023-01-29T18:06:53.896Z,9.00
2023-01-29T18:09:21.123Z,8.90
2023-01-29T18:11:48.862Z,8.60
2023-01-29T18:14:15.762Z,8.20
2023-01-29T18:16:43.398Z,9.50
2023-01-29T18:19:26.773Z,8.60
2023-01-29T18:21:54.034Z,9.10
2023-01-29T18:24:20.757Z,8.70
2023-01-29T18:26:48.338Z,8.90
2023-01-29T18:29:15.679Z,7.70
2023-01-29T18:31:42.521Z,8.80
2023-01-29T18:34:09.418Z,8.80
2023-01-29T18:36:36.787Z,7.80
2023-01-29T18:39:03.600Z,8.10
2023-01-29T18:41:30.647Z,8.20
2023-01-29T18:43:57.467Z,9.00
2023-01-29T18:46:24.337Z,8.70
2023-01-29T18:48:53.669Z,9.30
2023-01-29T18:51:20.639Z,8.80
2023-01-29T18:53:50.883Z,8.60
2023-01-29T18:56:20.632Z,9.00
2023-01-29T18:58:52.719Z,8.10
2023-01-29T19:01:23.259Z,7.90
2023-01-29T19:03:50.129Z,9.10
2023-01-29T19:06:17.040Z,9.80
2023-01-29T19:08:44.227Z,7.60
2023-01-29T19:11:11.981Z,9.10
2023-01-29T19:13:40.345Z,8.80
2023-01-29T19:16:11.498Z,9.80
2023-01-29T19:18:38.568Z,9.20
2023-01-29T19:21:10.917Z,10.00
2023-01-29T19:23:37.726Z,8.40
2023-01-29T19:26:05.364Z,9.40
2023-01-29T19:28:32.401Z,9.50
2023-01-29T19:30:59.656Z,9.70
2023-01-29T19:33:27.242Z,10.90
2023-01-29T19:35:57.977Z,10.10
2023-01-29T19:38:24.977Z,8.00
2023-01-29T19:40:51.964Z,9.30
2023-01-29T19:43:18.751Z,9.00
2023-01-29T19:45:50.733Z,8.50
2023-01-29T23:59:42.285Z,6.60
